Time;durP1;ratioP1;P1;durP2;ratioP2;P2;SDS_P1;SDS_P2;PMS_P1;PMS_P2;Temp;Humidity;BMP_temperature;BMP_pressure;BME280_temperature;BME280_humidity;BME280_pressure;Samples;Min_cycle;Max_cycle;Signal;HPM_P1;HPM_P2
2023/06/10 00:01:37;;;;;;;;;;;;;;;21.40;52.22;101362.81;5052524;28;1882;-75
2023/06/10 00:04:02;;;;;;;;;;;;;;;21.35;52.61;101375.72;5047045;28;1002;-75
2023/06/10 00:06:28;;;;;;;;;;;;;;;21.32;52.42;101361.06;5053860;28;1501;-75
2023/06/10 00:08:54;;;;;;;;;;;;;;;21.30;53.02;101362.25;5025899;28;1303;-75
2023/06/10 00:11:21;;;;;;;;;;;;;;;21.27;52.80;101373.13;5041888;28;1225;-75
2023/06/10 00:13:46;;;;;;;;;;;;;;;21.23;52.50;101371.88;5050341;28;1068;-76
2023/06/10 00:16:11;;;;;;;;;;;;;;;21.19;52.81;101376.69;5050265;28;1569;-75
2023/06/10 00:18:38;;;;;;;;;;;;;;;21.10;52.74;101373.28;5048900;28;1101;-75
2023/06/10 00:21:04;;;;;;;;;;;;;;;21.09;52.84;101369.03;5041008;28;1894;-76
2023/06/10 00:23:30;;;;;;;;;;;;;;;21.04;52.82;101368.75;5055295;28;1176;-75
2023/06/10 00:25:56;;;;;;;;;;;;;;;21.00;53.06;101371.94;5033265;28;1594;-75
2023/06/10 00:28:21;;;;;;;;;;;;;;;20.94;52.98;101373.47;5050476;28;1709;-75
2023/06/10 00:30:47;;;;;;;;;;;;;;;20.90;53.03;101378.28;5032461;28;1405;-76
2023/06/10 00:33:12;;;;;;;;;;;;;;;20.90;53.41;101383.56;5062350;28;1173;-75
2023/06/10 00:35:37;;;;;;;;;;;;;;;20.88;53.17;101374.19;5048065;28;1467;-75
2023/06/10 00:38:02;;;;;;;;;;;;;;;20.85;53.25;101379.81;5042256;28;1315;-75
2023/06/10 00:40:27;;;;;;;;;;;;;;;20.83;53.55;101381.81;5049381;28;1250;-76
2023/06/10 00:42:53;;;;;;;;;;;;;;;20.79;53.39;101383.16;5047785;28;1890;-77
2023/06/10 00:45:18;;;;;;;;;;;;;;;20.76;53.63;101376.44;5048789;28;1484;-75
2023/06/10 00:47:43;;;;;;;;;;;;;;;20.75;53.58;101379.25;5050781;28;1168;-75
2023/06/10 00:50:09;;;;;;;;;;;;;;;20.69;53.93;101380.78;5051304;28;1100;-77
2023/06/10 00:52:35;;;;;;;;;;;;;;;20.65;54.03;101380.34;5053101;28;1234;-76
2023/06/10 00:55:00;;;;;;;;;;;;;;;20.62;54.04;101375.41;5051901;28;1298;-75
2023/06/10 00:57:26;;;;;;;;;;;;;;;20.62;54.28;101375.41;5033060;28;1160;-76
2023/06/10 00:59:51;;;;;;;;;;;;;;;20.59;54.19;101374.97;5051684;28;1258;-77
2023/06/10 01:02:17;;;;;;;;;;;;;;;20.53;54.29;101376.47;5059496;28;1959;-76
2023/06/10 01:04:42;;;;;;;;;;;;;;;20.52;54.41;101380.09;5047687;28;1519;-76
2023/06/10 01:07:09;;;;;;;;;;;;;;;20.47;54.50;101381.63;5054834;28;1156;-75
2023/06/10 01:09:40;;;;;;;;;;;;;;;20.45;54.55;101373.03;5051514;28;1134;-77
2023/06/10 01:12:10;;;;;;;;;;;;;;;20.43;54.62;101373.22;5049359;28;1101;-77
2023/06/10 01:14:38;;;;;;;;;;;;;;;20.41;55.17;101373.41;5029357;28;1326;-77
2023/06/10 01:17:04;;;;;;;;;;;;;;;20.36;54.99;101380.22;5056270;28;1154;-77
2023/06/10 01:19:32;;;;;;;;;;;;;;;20.32;55.09;101389.44;5032737;28;1924;-75
2023/06/10 01:22:00;;;;;;;;;;;;;;;20.26;55.62;101375.16;5057166;28;1901;-77
2023/06/10 01:24:25;;;;;;;;;;;;;;;20.26;55.50;101385.69;5042719;28;1227;-76
2023/06/10 01:26:51;;;;;;;;;;;;;;;20.22;55.46;101378.31;5036327;28;1302;-76
2023/06/10 01:29:25;;;;;;;;;;;;;;;20.22;55.54;101383.59;5055704;28;1382;-76
2023/06/10 01:32:01;;;;;;;;;;;;;;;20.17;55.37;101381.47;5045242;28;1321;-75
2023/06/10 01:34:27;;;;;;;;;;;;;;;20.13;55.37;101381.00;5029198;28;1429;-76
2023/06/10 01:36:55;;;;;;;;;;;;;;;20.11;55.63;101385.63;5047124;28;1561;-75
2023/06/10 01:39:22;;;;;;;;;;;;;;;20.09;55.62;101379.72;5051068;28;1211;-76
2023/06/10 01:41:48;;;;;;;;;;;;;;;20.06;55.96;101384.50;5040418;28;1910;-76
2023/06/10 01:44:17;;;;;;;;;;;;;;;20.05;55.68;101378.41;5053328;28;1073;-76
2023/06/10 01:46:42;;;;;;;;;;;;;;;20.08;55.80;101382.53;5046010;28;1489;-77
2023/06/10 01:49:07;;;;;;;;;;;;;;;19.94;55.95;101376.16;5049992;28;1092;-76
2023/06/10 01:51:32;;;;;;;;;;;;;;;19.90;56.03;101377.53;5027054;28;1507;-77
2023/06/10 01:53:58;;;;;;;;;;;;;;;19.85;56.26;101371.97;5050272;28;1118;-77
2023/06/10 01:56:23;;;;;;;;;;;;;;;19.84;56.68;101370.28;5053220;28;1190;-76
2023/06/10 01:58:48;;;;;;;;;;;;;;;19.80;56.34;101369.03;5048604;28;1074;-76
2023/06/10 02:01:14;;;;;;;;;;;;;;;19.82;56.32;101374.91;5054590;28;1898;-76
2023/06/10 02:03:39;;;;;;;;;;;;;;;19.82;56.20;101382.81;5045122;28;1409;-76
2023/06/10 02:06:04;;;;;;;;;;;;;;;19.77;56.33;101380.69;5054143;28;1120;-75
2023/06/10 02:08:29;;;;;;;;;;;;;;;19.73;56.45;101381.22;5047125;28;1052;-76
2023/06/10 02:10:54;;;;;;;;;;;;;;;19.74;56.23;101372.34;5049377;28;1534;-76
2023/06/10 02:13:20;;;;;;;;;;;;;;;19.68;56.16;101370.41;5051366;28;1481;-77
2023/06/10 02:15:45;;;;;;;;;;;;;;;19.65;56.28;101376.81;5057068;28;1541;-76
2023/06/10 02:18:11;;;;;;;;;;;;;;;19.65;56.17;101375.97;5047265;28;1084;-76
2023/06/10 02:20:37;;;;;;;;;;;;;;;19.58;56.38;101379.31;5048710;28;1362;-76
2023/06/10 02:23:03;;;;;;;;;;;;;;;19.54;56.29;101385.03;5032155;28;1901;-76
2023/06/10 02:25:28;;;;;;;;;;;;;;;19.51;56.35;101388.84;5055367;28;1098;-76
2023/06/10 02:27:53;;;;;;;;;;;;;;;19.51;56.27;101394.09;5053826;28;1070;-75
2023/06/10 02:30:19;;;;;;;;;;;;;;;19.44;56.30;101387.03;5051834;28;1029;-76
2023/06/10 02:32:47;;;;;;;;;;;;;;;19.40;56.36;101386.56;5034605;28;1406;-77
2023/06/10 02:35:13;;;;;;;;;;;;;;;19.37;56.40;101389.53;5045026;28;1479;-77
2023/06/10 02:37:38;;;;;;;;;;;;;;;19.35;56.55;101391.53;5039638;28;1244;-77
2023/06/10 02:40:03;;;;;;;;;;;;;;;19.32;56.26;101391.84;5034674;28;1290;-76
2023/06/10 02:42:29;;;;;;;;;;;;;;;19.28;56.68;101395.81;5042821;28;1969;-76
2023/06/10 02:44:54;;;;;;;;;;;;;;;19.25;56.62;101390.88;5043387;28;1204;-76
2023/06/10 02:47:19;;;;;;;;;;;;;;;19.23;56.69;101390.25;5051553;28;981;-76
2023/06/10 02:49:45;;;;;;;;;;;;;;;19.22;56.85;101391.22;5045029;28;1152;-76
2023/06/10 02:52:11;;;;;;;;;;;;;;;19.19;56.67;101392.38;5043672;28;1295;-76
2023/06/10 02:54:36;;;;;;;;;;;;;;;19.17;56.16;101393.53;5051052;28;1065;-75
2023/06/10 02:57:02;;;;;;;;;;;;;;;19.07;56.82;101389.28;5049745;28;1061;-76
2023/06/10 02:59:28;;;;;;;;;;;;;;;19.06;56.89;101387.63;5032268;28;1327;-76
2023/06/10 03:01:53;;;;;;;;;;;;;;;19.03;56.99;101387.94;5042241;28;1894;-76
2023/06/10 03:04:20;;;;;;;;;;;;;;;19.00;57.02;101387.50;5034246;28;1327;-77
2023/06/10 03:06:46;;;;;;;;;;;;;;;18.97;57.22;101388.63;5044336;28;1130;-75
2023/06/10 03:09:12;;;;;;;;;;;;;;;18.95;57.12;101392.41;5051415;28;1349;-76
2023/06/10 03:11:37;;;;;;;;;;;;;;;18.90;57.28;101398.16;5032749;28;1242;-76
2023/06/10 03:14:02;;;;;;;;;;;;;;;18.87;57.54;101388.00;5052122;28;1219;-77
2023/06/10 03:16:27;;;;;;;;;;;;;;;18.82;57.68;101395.56;5054128;28;1255;-75
2023/06/10 03:18:53;;;;;;;;;;;;;;;18.79;57.66;101393.25;5051055;28;1465;-77
2023/06/10 03:21:18;;;;;;;;;;;;;;;18.74;57.57;101398.16;5050147;28;1886;-76
2023/06/10 03:23:43;;;;;;;;;;;;;;;18.72;57.69;101400.16;5049898;28;1125;-76
2023/06/10 03:26:09;;;;;;;;;;;;;;;18.71;57.67;101398.50;5038832;28;1144;-77
2023/06/10 03:28:35;;;;;;;;;;;;;;;18.66;58.03;101395.53;5037415;28;1438;-76
2023/06/10 03:31:00;;;;;;;;;;;;;;;18.65;57.96;101409.66;5050185;28;1165;-77
2023/06/10 03:33:26;;;;;;;;;;;;;;;18.62;58.13;101404.72;5032544;28;1263;-76
2023/06/10 03:35:51;;;;;;;;;;;;;;;18.60;57.99;101401.44;5044189;28;1473;-77
2023/06/10 03:38:16;;;;;;;;;;;;;;;18.61;57.96;101403.06;5047702;28;1239;-75
2023/06/10 03:40:41;;;;;;;;;;;;;;;18.53;58.05;101404.72;5024250;28;1898;-76
2023/06/10 03:43:07;;;;;;;;;;;;;;;18.51;58.74;101409.28;5045425;28;1291;-76
2023/06/10 03:45:32;;;;;;;;;;;;;;;18.42;58.69;101410.28;5046636;28;1147;-77
2023/06/10 03:47:57;;;;;;;;;;;;;;;18.40;58.89;101414.84;5047078;28;1069;-75
2023/06/10 03:50:23;;;;;;;;;;;;;;;18.40;58.75;101420.09;5048548;28;1569;-76
2023/06/10 03:52:48;;;;;;;;;;;;;;;18.37;58.62;101417.00;5044343;28;1409;-76
2023/06/10 03:55:13;;;;;;;;;;;;;;;18.38;58.84;101414.22;5041441;28;1303;-76
2023/06/10 03:57:39;;;;;;;;;;;;;;;18.34;59.05;101418.13;5041507;28;1389;-76
2023/06/10 04:00:11;;;;;;;;;;;;;;;18.32;59.02;101409.59;5026605;28;1180;-77
2023/06/10 04:02:37;;;;;;;;;;;;;;;18.29;59.13;101417.78;5048796;28;1897;-76
2023/06/10 04:05:02;;;;;;;;;;;;;;;18.27;59.31;101417.13;5046102;28;1398;-75
2023/06/10 04:07:28;;;;;;;;;;;;;;;18.24;59.32;101412.22;5031894;28;1398;-74
2023/06/10 04:09:53;;;;;;;;;;;;;;;18.22;59.51;101414.16;5046964;28;1664;-76
2023/06/10 04:12:18;;;;;;;;;;;;;;;18.22;59.58;101419.41;5047336;28;1136;-75
2023/06/10 04:14:44;;;;;;;;;;;;;;;18.21;60.26;101423.03;5054623;28;1086;-77
2023/06/10 04:17:09;;;;;;;;;;;;;;;18.20;60.97;101422.22;5042224;28;1247;-75
2023/06/10 04:19:35;;;;;;;;;;;;;;;18.19;60.07;101425.84;5037421;28;1292;-75
2023/06/10 04:22:00;;;;;;;;;;;;;;;18.18;60.55;101425.97;5033647;28;1968;-76
2023/06/10 04:24:26;;;;;;;;;;;;;;;18.17;60.66;101432.19;5036206;28;1307;-76
2023/06/10 04:26:51;;;;;;;;;;;;;;;18.15;60.38;101431.56;5044649;28;1440;-75
2023/06/10 04:29:19;;;;;;;;;;;;;;;18.17;60.50;101432.19;5050256;28;1049;-75
2023/06/10 04:31:46;;;;;;;;;;;;;;;18.14;61.14;101435.97;5050461;28;1060;-76
2023/06/10 04:34:12;;;;;;;;;;;;;;;18.14;60.72;101432.53;5061840;28;1098;-76
2023/06/10 04:36:37;;;;;;;;;;;;;;;18.14;61.33;101437.78;5043548;28;1528;-76
2023/06/10 04:39:02;;;;;;;;;;;;;;;18.13;61.67;101436.97;5058276;28;1123;-76
2023/06/10 04:41:28;;;;;;;;;;;;;;;18.12;61.68;101434.47;5046163;28;1898;-75
2023/06/10 04:43:53;;;;;;;;;;;;;;;18.15;61.77;101440.25;5044818;28;1446;-76
2023/06/10 04:46:19;;;;;;;;;;;;;;;18.17;61.24;101434.84;5026694;28;1201;-77
2023/06/10 04:48:46;;;;;;;;;;;;;;;18.19;61.36;101446.00;5046669;28;1140;-76
2023/06/10 04:51:11;;;;;;;;;;;;;;;18.21;61.34;101444.03;5032583;28;1225;-76
2023/06/10 04:53:36;;;;;;;;;;;;;;;18.22;61.46;101451.75;5045073;28;1299;-77
2023/06/10 04:56:02;;;;;;;;;;;;;;;18.24;61.32;101454.25;5043761;28;1377;-76
2023/06/10 04:58:27;;;;;;;;;;;;;;;18.23;62.13;101447.31;5051292;28;1135;-77
2023/06/10 05:00:52;;;;;;;;;;;;;;;18.26;62.35;101447.00;5051055;28;1933;-76
2023/06/10 05:03:17;;;;;;;;;;;;;;;18.28;62.08;101452.91;5047121;28;2049;-77
2023/06/10 05:05:42;;;;;;;;;;;;;;;18.28;62.25;101451.09;5048019;28;1504;-75
2023/06/10 05:08:08;;;;;;;;;;;;;;;18.31;63.03;101442.94;5055096;28;1005;-76
2023/06/10 05:10:34;;;;;;;;;;;;;;;18.35;61.84;101446.06;5051735;28;1114;-77
2023/06/10 05:12:59;;;;;;;;;;;;;;;18.34;62.45;101449.66;5053909;28;1088;-76
2023/06/10 05:15:24;;;;;;;;;;;;;;;18.34;62.16;101444.41;5051870;28;1362;-76
2023/06/10 05:17:50;;;;;;;;;;;;;;;18.40;61.93;101449.00;5053032;28;1385;-75
2023/06/10 05:20:15;;;;;;;;;;;;;;;18.42;62.54;101452.31;5052387;28;1041;-77
2023/06/10 05:22:40;;;;;;;;;;;;;;;18.44;62.16;101445.06;5040269;28;1891;-76
2023/06/10 05:25:06;;;;;;;;;;;;;;;18.50;62.03;101449.69;5044874;28;1109;-76
2023/06/10 05:27:31;;;;;;;;;;;;;;;18.52;62.28;101452.13;5034766;28;1565;-76
2023/06/10 05:29:56;;;;;;;;;;;;;;;18.56;61.96;101453.47;5049690;28;1090;-76
2023/06/10 05:32:22;;;;;;;;;;;;;;;18.63;61.93;101451.00;5047104;28;1210;-77
2023/06/10 05:34:47;;;;;;;;;;;;;;;18.65;62.12;101446.44;5040510;28;1118;-76
2023/06/10 05:37:12;;;;;;;;;;;;;;;18.64;62.45;101450.03;5046335;28;1444;-76
2023/06/10 05:39:37;;;;;;;;;;;;;;;18.70;62.11;101449.44;5048086;28;1375;-76
2023/06/10 05:42:04;;;;;;;;;;;;;;;18.75;62.19;101452.38;5055913;28;1937;-77
2023/06/10 05:44:29;;;;;;;;;;;;;;;18.74;61.97;101450.72;5052661;28;1097;-76
2023/06/10 05:46:54;;;;;;;;;;;;;;;18.83;61.74;101455.00;5040612;28;1537;-76
2023/06/10 05:49:19;;;;;;;;;;;;;;;18.93;61.78;101460.13;5045235;28;1101;-77
2023/06/10 05:51:45;;;;;;;;;;;;;;;18.96;62.20;101455.34;5053494;28;1029;-76
2023/06/10 05:54:10;;;;;;;;;;;;;;;19.02;61.68;101454.69;5029310;28;1322;-76
2023/06/10 05:56:35;;;;;;;;;;;;;;;19.08;61.54;101459.28;5048477;28;1410;-76
2023/06/10 05:59:00;;;;;;;;;;;;;;;19.13;61.31;101457.97;5041488;28;1901;-76
2023/06/10 06:01:25;;;;;;;;;;;;;;;19.19;61.40;101450.22;5051092;28;1975;-75
2023/06/10 06:03:51;;;;;;;;;;;;;;;19.22;61.01;101454.34;5050490;28;1022;-76
2023/06/10 06:06:16;;;;;;;;;;;;;;;19.25;60.94;101457.44;5052156;28;1085;-76
2023/06/10 06:08:41;;;;;;;;;;;;;;;19.29;60.57;101460.59;5050523;28;1521;-77
2023/06/10 06:11:06;;;;;;;;;;;;;;;19.30;60.71;101472.75;5035690;28;1184;-77
2023/06/10 06:13:31;;;;;;;;;;;;;;;19.32;60.70;101457.59;5050993;28;1118;-76
2023/06/10 06:15:57;;;;;;;;;;;;;;;19.40;60.58;101468.13;5051256;28;1339;-76
2023/06/10 06:18:22;;;;;;;;;;;;;;;19.45;60.50;101455.28;5045498;28;1302;-77
2023/06/10 06:20:47;;;;;;;;;;;;;;;19.52;60.72;101452.81;5049569;28;1137;-77
2023/06/10 06:23:13;;;;;;;;;;;;;;;19.59;60.56;101457.25;5058314;28;1965;-77
2023/06/10 06:25:38;;;;;;;;;;;;;;;19.68;59.59;101454.63;5031211;28;2469;-76
2023/06/10 06:28:05;;;;;;;;;;;;;;;19.72;59.78;101461.97;5045630;28;1353;-76
2023/06/10 06:30:30;;;;;;;;;;;;;;;19.77;59.58;101464.09;5033490;28;1180;-76
2023/06/10 06:32:56;;;;;;;;;;;;;;;19.80;59.67;101464.59;5052481;28;1004;-76
2023/06/10 06:35:21;;;;;;;;;;;;;;;19.87;59.42;101465.56;5041633;28;1046;-76
2023/06/10 06:37:46;;;;;;;;;;;;;;;19.92;59.37;101465.03;5050816;28;1611;-76
2023/06/10 06:40:11;;;;;;;;;;;;;;;19.97;59.57;101465.34;5058447;28;1178;-76
2023/06/10 06:42:37;;;;;;;;;;;;;;;20.06;59.75;101466.94;5056151;28;1902;-76
2023/06/10 06:45:02;;;;;;;;;;;;;;;20.16;59.23;101464.94;5023920;28;1345;-76
2023/06/10 06:47:27;;;;;;;;;;;;;;;20.24;59.14;101461.41;5048925;28;1353;-77
2023/06/10 06:49:52;;;;;;;;;;;;;;;20.32;58.95;101464.03;5048371;28;1002;-76
2023/06/10 06:52:18;;;;;;;;;;;;;;;20.35;58.74;101463.66;5047531;28;1017;-76
2023/06/10 06:54:43;;;;;;;;;;;;;;;20.40;59.31;101469.25;5050242;28;1069;-76
2023/06/10 06:57:09;;;;;;;;;;;;;;;20.50;58.55;101471.69;5049962;28;1592;-77
2023/06/10 06:59:34;;;;;;;;;;;;;;;20.57;59.01;101472.63;5050644;28;1192;-77
2023/06/10 07:01:59;;;;;;;;;;;;;;;20.66;58.52;101466.31;5046145;28;1963;-77
2023/06/10 07:04:24;;;;;;;;;;;;;;;20.76;57.86;101470.50;5047206;28;1362;-76
2023/06/10 07:06:50;;;;;;;;;;;;;;;20.79;57.71;101480.72;5026752;28;1248;-76
2023/06/10 07:09:15;;;;;;;;;;;;;;;20.87;57.93;101472.75;5028433;28;1217;-76
2023/06/10 07:11:40;;;;;;;;;;;;;;;20.95;57.88;101470.06;5053874;28;1018;-76
2023/06/10 07:14:06;;;;;;;;;;;;;;;21.02;56.88;101472.78;5026468;28;1295;-76
2023/06/10 07:16:31;;;;;;;;;;;;;;;21.12;57.10;101473.38;5048897;28;1355;-77
2023/06/10 07:18:56;;;;;;;;;;;;;;;21.19;57.10;101472.47;5048035;28;1181;-77
2023/06/10 07:21:23;;;;;;;;;;;;;;;21.25;57.55;101478.03;5034902;28;1929;-77
2023/06/10 07:23:48;;;;;;;;;;;;;;;21.33;57.00;101480.59;5047889;28;1238;-74
2023/06/10 07:26:14;;;;;;;;;;;;;;;21.42;56.66;101476.91;5051037;28;1460;-76
2023/06/10 07:28:42;;;;;;;;;;;;;;;21.52;56.86;101476.66;5052262;28;1101;-75
2023/06/10 07:31:07;;;;;;;;;;;;;;;21.63;56.79;101478.84;5048564;28;1079;-75
2023/06/10 07:33:33;;;;;;;;;;;;;;;21.73;56.21;101468.81;5032894;28;1307;-78
2023/06/10 07:35:58;;;;;;;;;;;;;;;21.79;56.45;101483.09;5050334;28;1334;-76
2023/06/10 07:38:24;;;;;;;;;;;;;;;21.90;56.11;101486.09;5031429;28;1285;-76
2023/06/10 07:40:49;;;;;;;;;;;;;;;21.97;55.65;101486.22;5056118;28;1078;-80
2023/06/10 07:43:14;;;;;;;;;;;;;;;22.04;55.63;101487.09;5050936;28;1913;-79
2023/06/10 07:45:41;;;;;;;;;;;;;;;22.13;55.30;101490.47;5046779;28;1294;-79
2023/06/10 07:48:06;;;;;;;;;;;;;;;22.22;55.51;101490.19;5047843;28;1362;-79
2023/06/10 07:50:31;;;;;;;;;;;;;;;22.29;55.03;101490.25;5050781;28;1327;-79
2023/06/10 07:52:56;;;;;;;;;;;;;;;22.32;54.79;101494.38;5048963;28;1089;-79
2023/06/10 07:55:21;;;;;;;;;;;;;;;22.38;54.61;101493.63;5030530;28;1283;-79
2023/06/10 07:57:47;;;;;;;;;;;;;;;22.43;52.71;101489.41;5047436;28;1345;-78
2023/06/10 08:00:12;;;;;;;;;;;;;;;22.43;52.85;101491.25;5047198;28;1460;-78
2023/06/10 08:02:37;;;;;;;;;;;;;;;22.51;53.30;101493.75;5047965;28;1897;-77
2023/06/10 08:05:03;;;;;;;;;;;;;;;22.59;53.55;101496.28;5047370;28;2726;-81
2023/06/10 08:07:28;;;;;;;;;;;;;;;22.70;53.85;101493.13;5048942;28;1349;-80
2023/06/10 08:09:53;;;;;;;;;;;;;;;22.79;53.78;101491.19;5031333;28;1262;-81
2023/06/10 08:12:18;;;;;;;;;;;;;;;22.92;53.81;101493.97;5034678;28;1225;-82
2023/06/10 08:14:43;;;;;;;;;;;;;;;23.02;53.53;101491.03;5032346;28;1315;-80
2023/06/10 08:17:09;;;;;;;;;;;;;;;23.07;52.45;101504.50;5030062;28;1395;-79
2023/06/10 08:19:34;;;;;;;;;;;;;;;23.14;52.95;101500.06;5051126;28;1315;-82
2023/06/10 08:21:59;;;;;;;;;;;;;;;23.27;52.34;101500.16;5047040;28;1890;-79
2023/06/10 08:24:24;;;;;;;;;;;;;;;23.33;52.52;101499.41;5058581;28;1172;-81
2023/06/10 08:26:50;;;;;;;;;;;;;;;23.44;52.45;101494.59;5049556;28;1354;-81
2023/06/10 08:29:15;;;;;;;;;;;;;;;23.52;52.69;101497.09;5040112;28;1340;-81
2023/06/10 08:31:43;;;;;;;;;;;;;;;23.59;52.21;101497.94;5044344;28;1155;-82
2023/06/10 08:34:09;;;;;;;;;;;;;;;23.63;50.81;101504.53;5055289;28;1096;-81
2023/06/10 08:36:35;;;;;;;;;;;;;;;23.76;50.96;101504.59;5051687;28;1317;-81
2023/06/10 08:39:00;;;;;;;;;;;;;;;23.81;50.53;101496.88;5049032;28;1080;-81
2023/06/10 08:41:28;;;;;;;;;;;;;;;23.90;50.70;101491.41;5037406;28;1897;-82
2023/06/10 08:44:03;;;;;;;;;;;;;;;23.94;49.93;101490.84;5045423;28;1192;-81
2023/06/10 08:46:31;;;;;;;;;;;;;;;24.04;50.47;101493.13;5040508;28;1291;-79
2023/06/10 08:49:00;;;;;;;;;;;;;;;24.14;50.23;101496.19;5046983;28;1342;-81
2023/06/10 08:51:26;;;;;;;;;;;;;;;24.24;50.36;101501.94;5046818;28;1462;-80
2023/06/10 08:53:56;;;;;;;;;;;;;;;24.35;50.05;101498.75;5045971;28;1422;-79
2023/06/10 08:56:23;;;;;;;;;;;;;;;24.40;49.19;101505.31;5049738;28;1231;-80
2023/06/10 08:58:48;;;;;;;;;;;;;;;24.45;49.92;101509.00;5040194;28;1018;-81
2023/06/10 09:01:14;;;;;;;;;;;;;;;24.53;49.73;101502.69;5042335;28;1981;-81
2023/06/10 09:03:41;;;;;;;;;;;;;;;24.64;49.97;101502.09;5051356;28;1054;-79
2023/06/10 09:06:07;;;;;;;;;;;;;;;24.78;48.99;101509.06;5045427;28;1267;-81
2023/06/10 09:08:33;;;;;;;;;;;;;;;24.84;48.57;101496.81;5034053;28;1387;-80
2023/06/10 09:10:59;;;;;;;;;;;;;;;24.84;48.92;101497.63;5053895;28;958;-81
2023/06/10 09:13:24;;;;;;;;;;;;;;;24.86;48.67;101500.91;5057074;28;1259;-80
2023/06/10 09:15:51;;;;;;;;;;;;;;;24.95;48.65;101492.75;5047953;28;1281;-81
2023/06/10 09:18:16;;;;;;;;;;;;;;;25.05;47.64;101498.44;5036939;28;1175;-79
2023/06/10 09:20:41;;;;;;;;;;;;;;;25.07;47.28;101496.44;5053804;28;1049;-81
2023/06/10 09:23:06;;;;;;;;;;;;;;;25.10;47.62;101496.03;5057516;28;1959;-81
2023/06/10 09:25:38;;;;;;;;;;;;;;;25.21;48.12;101492.75;5054484;28;1319;-82
2023/06/10 09:28:04;;;;;;;;;;;;;;;25.33;48.03;101491.09;5055752;28;1348;-81
2023/06/10 09:30:33;;;;;;;;;;;;;;;25.45;47.46;101493.13;5057716;28;1023;-81
2023/06/10 09:33:00;;;;;;;;;;;;;;;25.45;45.95;101493.94;5052180;28;1102;-80
2023/06/10 09:35:26;;;;;;;;;;;;;;;25.45;46.87;101493.13;5043684;28;1475;-82
2023/06/10 09:37:55;;;;;;;;;;;;;;;25.53;47.58;101490.28;5051104;28;1373;-81
2023/06/10 09:40:20;;;;;;;;;;;;;;;25.66;47.62;101495.53;5032808;28;1906;-80
2023/06/10 09:42:48;;;;;;;;;;;;;;;25.76;47.57;101490.66;5035933;28;1899;-80
2023/06/10 09:45:14;;;;;;;;;;;;;;;25.86;47.19;101493.69;5041139;28;1224;-81
2023/06/10 09:47:39;;;;;;;;;;;;;;;26.00;47.41;101496.28;5049042;28;1562;-82
2023/06/10 09:50:05;;;;;;;;;;;;;;;26.08;45.72;101493.38;5044835;28;1278;-82
2023/06/10 09:52:30;;;;;;;;;;;;;;;26.17;46.47;101489.47;5049448;28;1379;-81
2023/06/10 09:55:01;;;;;;;;;;;;;;;26.33;45.91;101488.97;5048293;28;1311;-82
2023/06/10 09:57:30;;;;;;;;;;;;;;;26.43;45.81;101497.31;5044403;28;1244;-82
2023/06/10 09:59:55;;;;;;;;;;;;;;;26.53;45.86;101490.72;5045976;28;1273;-82
2023/06/10 10:02:21;;;;;;;;;;;;;;;26.62;45.59;101489.44;5050490;28;1897;-80
2023/06/10 10:04:46;;;;;;;;;;;;;;;26.77;44.52;101487.25;5046815;28;1311;-78
2023/06/10 10:07:12;;;;;;;;;;;;;;;26.84;44.95;101484.53;5050072;28;1189;-83
2023/06/10 10:09:37;;;;;;;;;;;;;;;26.89;44.84;101482.88;5054039;28;1141;-78
2023/06/10 10:12:06;;;;;;;;;;;;;;;26.92;45.08;101473.66;5034745;28;1211;-79
2023/06/10 10:14:32;;;;;;;;;;;;;;;27.04;44.10;101479.88;5039884;28;1283;-77
2023/06/10 10:16:59;;;;;;;;;;;;;;;27.06;42.88;101474.34;5053917;28;1242;-83
2023/06/10 10:19:29;;;;;;;;;;;;;;;27.08;43.12;101482.97;5055583;28;1160;-79
2023/06/10 10:21:57;;;;;;;;;;;;;;;27.10;43.43;101475.56;5057434;28;1910;-78
2023/06/10 10:24:26;;;;;;;;;;;;;;;27.23;43.53;101481.56;5049709;28;1699;-79
2023/06/10 10:26:53;;;;;;;;;;;;;;;27.27;43.23;101481.97;5036155;28;1460;-79
2023/06/10 10:29:29;;;;;;;;;;;;;;;27.34;42.88;101482.69;5061084;28;1116;-78
2023/06/10 10:31:56;;;;;;;;;;;;;;;27.40;42.37;101481.81;5054857;28;993;-82
2023/06/10 10:34:25;;;;;;;;;;;;;;;27.49;41.94;101480.50;5046811;28;1294;-79
2023/06/10 10:36:50;;;;;;;;;;;;;;;27.56;41.15;101469.78;5022359;28;1386;-82
2023/06/10 10:39:16;;;;;;;;;;;;;;;27.66;41.05;101475.41;5057482;28;1083;-82
2023/06/10 10:41:41;;;;;;;;;;;;;;;27.72;40.75;101468.41;5049640;28;1963;-80
2023/06/10 10:44:10;;;;;;;;;;;;;;;27.81;42.12;101479.56;5050758;28;1102;-78
2023/06/10 10:46:43;;;;;;;;;;;;;;;27.91;40.86;101475.31;5027614;28;1788;-81
2023/06/10 10:49:08;;;;;;;;;;;;;;;28.10;41.02;101464.63;5054001;28;1224;-82
2023/06/10 10:51:35;;;;;;;;;;;;;;;28.00;40.14;101460.66;5054569;28;1032;-81
2023/06/10 10:54:10;;;;;;;;;;;;;;;28.09;40.48;101468.34;5044556;28;1270;-80
2023/06/10 10:56:35;;;;;;;;;;;;;;;28.12;36.75;101473.22;5047974;28;1440;-83
2023/06/10 10:59:04;;;;;;;;;;;;;;;28.02;38.61;101463.09;5043453;28;990;-83
2023/06/10 11:01:39;;;;;;;;;;;;;;;28.03;38.18;101459.38;5049493;28;1971;-83
2023/06/10 11:04:06;;;;;;;;;;;;;;;28.11;38.22;101466.28;5049576;28;1275;-80
2023/06/10 11:06:31;;;;;;;;;;;;;;;28.20;37.50;101454.22;5044984;28;1116;-82
2023/06/10 11:08:58;;;;;;;;;;;;;;;28.07;38.50;101459.75;5029308;28;1699;-80
2023/06/10 11:11:26;;;;;;;;;;;;;;;28.13;37.99;101456.19;5032434;28;1282;-83
2023/06/10 11:14:00;;;;;;;;;;;;;;;28.23;37.93;101459.13;5042744;28;984;-79
2023/06/10 11:16:25;;;;;;;;;;;;;;;28.16;37.25;101448.56;5031958;28;1490;-78
2023/06/10 11:18:53;;;;;;;;;;;;;;;28.20;37.40;101444.38;5054154;28;1165;-78
2023/06/10 11:21:19;;;;;;;;;;;;;;;28.25;36.28;101447.16;5032046;28;1905;-82
2023/06/10 11:23:44;;;;;;;;;;;;;;;28.31;35.83;101445.44;5038749;28;1142;-81
2023/06/10 11:26:10;;;;;;;;;;;;;;;28.39;37.09;101439.00;5032416;28;1324;-78
2023/06/10 11:28:36;;;;;;;;;;;;;;;28.50;36.89;101444.38;5049665;28;1567;-78
2023/06/10 11:31:01;;;;;;;;;;;;;;;28.55;35.58;101447.16;5035668;28;1351;-77
2023/06/10 11:33:26;;;;;;;;;;;;;;;28.47;35.39;101428.81;5047691;28;1153;-78
2023/06/10 11:35:52;;;;;;;;;;;;;;;28.52;35.58;101434.28;5045095;28;1177;-76
2023/06/10 11:38:18;;;;;;;;;;;;;;;28.64;36.10;101444.97;5039657;28;1351;-78
2023/06/10 11:40:50;;;;;;;;;;;;;;;28.76;35.98;101428.97;5051969;28;1687;-78
2023/06/10 11:43:16;;;;;;;;;;;;;;;28.86;35.14;101431.88;5044769;28;1886;-78
2023/06/10 11:45:42;;;;;;;;;;;;;;;28.90;35.63;101433.03;5052384;28;1254;-79
2023/06/10 11:48:09;;;;;;;;;;;;;;;28.95;33.98;101430.50;5030366;28;1309;-81
2023/06/10 11:50:34;;;;;;;;;;;;;;;28.98;33.50;101429.25;5047408;28;1254;-78
2023/06/10 11:53:00;;;;;;;;;;;;;;;28.99;35.37;101429.00;5028516;28;1208;-81
2023/06/10 11:55:40;;;;;;;;;;;;;;;29.05;34.64;101428.06;5028556;28;1378;-78
2023/06/10 11:58:11;;;;;;;;;;;;;;;29.13;33.78;101434.91;5027901;28;1752;-78
2023/06/10 12:00:43;;;;;;;;;;;;;;;29.22;34.84;101430.03;5049041;28;1261;-77
2023/06/10 12:03:08;;;;;;;;;;;;;;;29.29;34.51;101422.69;5044856;28;1894;-77
2023/06/10 12:05:33;;;;;;;;;;;;;;;29.33;34.49;101416.66;5041900;28;1249;-83
2023/06/10 12:08:11;;;;;;;;;;;;;;;29.33;32.82;101421.19;5024164;28;1578;-81
2023/06/10 12:10:43;;;;;;;;;;;;;;;29.23;33.60;101410.28;5025745;28;1283;-82
2023/06/10 12:13:09;;;;;;;;;;;;;;;29.30;33.34;101416.31;5045805;28;1235;-79
2023/06/10 12:15:34;;;;;;;;;;;;;;;29.29;33.90;101409.34;5044196;28;1594;-77
2023/06/10 12:17:59;;;;;;;;;;;;;;;29.33;33.80;101407.84;5046505;28;1109;-79
2023/06/10 12:20:29;;;;;;;;;;;;;;;29.40;33.78;101403.16;5029855;28;1285;-76
2023/06/10 12:22:54;;;;;;;;;;;;;;;29.49;33.30;101399.09;5046733;28;1953;-76
2023/06/10 12:25:25;;;;;;;;;;;;;;;29.56;33.29;101397.09;5035596;28;1310;-77
2023/06/10 12:27:51;;;;;;;;;;;;;;;29.57;32.43;101406.75;5028656;28;1266;-77
2023/06/10 12:30:20;;;;;;;;;;;;;;;29.50;32.67;101400.69;5028208;28;1386;-77
2023/06/10 12:32:46;;;;;;;;;;;;;;;29.54;32.01;101399.22;5052108;28;1500;-77
2023/06/10 12:35:13;;;;;;;;;;;;;;;29.51;33.20;101396.97;5039300;28;1245;-78
2023/06/10 12:37:39;;;;;;;;;;;;;;;29.53;32.62;101394.91;5032225;28;1213;-77
2023/06/10 12:40:08;;;;;;;;;;;;;;;29.50;32.62;101406.03;5036712;28;1339;-76
2023/06/10 12:42:35;;;;;;;;;;;;;;;29.50;33.08;101395.34;5031514;28;1899;-78